Flight Track Log - Related Links

Times and Time Zones

All times are in EST time to prevent confusion due to time zone crossing. See the BJS339 flight status page for this flight to view local times or setup timezone preferences in your user account.

Time Position Orientation Groundspeed Altitude Reporting Facility
EST Latitude Longitude Course Direction KTS MPH feet Rate Location/Type
Wed 01:21:22 PM 34.2500 -118.5000 20° North 195 224 3,500  Level Southern California TRACON
Wed 01:23:44 PM 34.3731 -118.4447 20° North 246 283 11,800 3,044 Climbing Los Angeles Center
Wed 01:24:45 PM 34.4242 -118.3686 51° Northeast 289 333 13,800 2,000 Climbing Los Angeles Center
Wed 01:25:47 PM 34.4800 -118.2731 55° Northeast 343 395 15,900 2,032 Climbing Los Angeles Center
Wed 01:26:49 PM 34.4331 -118.1636 117° Southeast 389 448 18,000 2,293 Climbing Los Angeles Center
Wed 01:27:50 PM 34.3556 -118.0672 134° Southeast 396 456 20,600 2,780 Climbing Los Angeles Center
Wed 01:28:52 PM 34.2603 -117.9481 134° Southeast 408 470 23,700 2,585 Climbing Los Angeles Center
Wed 01:29:53 PM 34.1797 -117.8478 134° Southeast 416 479 25,900 1,902 Climbing Los Angeles Center
Wed 01:30:55 PM 34.0950 -117.7447 135° Southeast 426 490 27,600 1,512 Climbing Los Angeles Center
Wed 01:31:56 PM 34.0108 -117.6375 133° Southeast 434 499 29,000 1,317 Climbing Los Angeles Center
Wed 01:32:58 PM 33.9206 -117.5275 135° Southeast 450 518 30,300 1,113 Climbing Los Angeles Center
Wed 01:34:00 PM 33.8286 -117.4133 134° Southeast 467 537 31,300 976 Climbing Los Angeles Center
Wed 01:35:01 PM 33.7322 -117.2972 135° Southeast 481 554 32,300 976 Climbing Los Angeles Center
Wed 01:36:03 PM 33.6356 -117.1794 135° Southeast 490 564 33,300 927 Climbing Los Angeles Center
Wed 01:37:04 PM 33.5356 -117.0581 135° Southeast 497 572 34,200 927 Climbing Los Angeles Center
Wed 01:38:06 PM 33.4378 -116.9400 135° Southeast 499 574 35,200 1,065 Climbing Los Angeles Center
Wed 01:39:08 PM 33.3189 -116.7969 135° Southeast 503 579 36,400 1,073 Climbing Los Angeles Center
Wed 01:40:09 PM 33.2200 -116.6806 135° Southeast 501 577 37,400 976 Climbing Los Angeles Center
Wed 01:41:11 PM 33.1281 -116.5586 132° Southeast 497 572 38,400 774 Climbing Los Angeles Center
Wed 01:42:13 PM 33.0558 -116.4183 122° Southeast 492 566 39,000 293 Climbing Los Angeles Center
Wed 01:43:14 PM 32.9858 -116.2814 121° Southeast 503 579 39,000  Level Los Angeles Center
Wed 01:44:16 PM 32.9031 -116.1269 123° Southeast 510 587 39,000  Level Los Angeles Center
Wed 01:45:18 PM 32.8267 -115.9822 122° Southeast 513 590 39,000  Level Los Angeles Center
Wed 01:46:19 PM 32.7497 -115.8386 122° Southeast 513 590 39,000  Level Los Angeles Center
Wed 01:47:21 PM 32.6744 -115.6956 122° Southeast 512 589 39,000  Level Los Angeles Center
Wed 01:48:23 PM 32.5997 -115.5522 122° Southeast 511 588 39,000  Level Los Angeles Center
Wed 01:50:00 PM 32.3974 -115.5103 170° South  Level FlightAware Approximate
Wed 01:57:00 PM 31.6293 -114.9820 150° Southeast  Level Estimated
Wed 01:58:00 PM 31.5145 -114.9182 155° Southeast  Level FlightAware Approximate
Wed 01:59:00 PM 31.3997 -114.8545 155° Southeast  Level FlightAware Approximate
Wed 02:00:00 PM 31.2848 -114.7910 155° Southeast  Level FlightAware Approximate
Wed 02:01:00 PM 31.1699 -114.7276 155° Southeast  Level FlightAware Approximate
Wed 02:02:00 PM 31.0602 -114.6530 149° Southeast  Level Estimated
Wed 02:03:00 PM 30.9509 -114.5773 149° Southeast  Level FlightAware Approximate
Wed 02:04:00 PM 30.8416 -114.5019 149° Southeast  Level FlightAware Approximate
Wed 02:05:00 PM 30.7323 -114.4266 149° Southeast  Level FlightAware Approximate
Wed 02:06:00 PM 30.6229 -114.3515 149° Southeast  Level FlightAware Approximate
Wed 02:07:00 PM 30.5135 -114.2766 149° Southeast  Level FlightAware Approximate
Wed 02:08:00 PM 30.4040 -114.2018 149° Southeast  Level FlightAware Approximate
Wed 02:09:00 PM 30.2945 -114.1272 150° Southeast  Level FlightAware Approximate
Wed 02:10:00 PM 30.1850 -114.0527 150° Southeast  Level FlightAware Approximate
Wed 02:11:00 PM 30.0754 -113.9785 150° Southeast  Level FlightAware Approximate
Wed 02:12:00 PM 29.9651 -113.9056 149° Southeast  Level Estimated
Wed 02:13:00 PM 29.8558 -113.8310 149° Southeast  Level FlightAware Approximate
Wed 02:14:00 PM 29.7465 -113.7565 149° Southeast  Level FlightAware Approximate
Wed 02:15:00 PM 29.6371 -113.6821 149° Southeast  Level FlightAware Approximate
Wed 02:16:00 PM 29.5277 -113.6079 149° Southeast  Level FlightAware Approximate
Wed 02:17:00 PM 29.4171 -113.5361 150° Southeast  Level Estimated
Wed 02:18:00 PM 29.3070 -113.4635 150° Southeast  Level FlightAware Approximate
Wed 02:19:00 PM 29.1968 -113.3911 150° Southeast  Level FlightAware Approximate
Wed 02:20:00 PM 29.0861 -113.3197 150° Southeast  Level Estimated
Wed 02:21:00 PM 28.9760 -113.2473 150° Southeast  Level FlightAware Approximate
Wed 02:22:00 PM 28.8658 -113.1751 150° Southeast  Level FlightAware Approximate
Wed 02:23:00 PM 28.7556 -113.1030 150° Southeast  Level FlightAware Approximate
Wed 02:24:00 PM 28.6453 -113.0311 150° Southeast  Level FlightAware Approximate
Wed 02:25:00 PM 28.5350 -112.9594 150° Southeast  Level FlightAware Approximate
Wed 02:26:00 PM 28.4247 -112.8878 150° Southeast  Level FlightAware Approximate
Wed 02:27:00 PM 28.3143 -112.8163 150° Southeast  Level FlightAware Approximate
Wed 02:28:00 PM 28.2039 -112.7450 150° Southeast  Level FlightAware Approximate
Wed 02:29:00 PM 28.0934 -112.6738 150° Southeast  Level FlightAware Approximate
Wed 02:30:00 PM 27.9829 -112.6028 150° Southeast  Level FlightAware Approximate
Wed 02:31:00 PM 27.8724 -112.5320 150° Southeast  Level FlightAware Approximate
Wed 02:32:00 PM 27.7619 -112.4612 150° Southeast  Level FlightAware Approximate
Wed 02:33:00 PM 27.6513 -112.3907 151° Southeast  Level FlightAware Approximate
Wed 02:34:00 PM 27.5406 -112.3202 151° Southeast  Level FlightAware Approximate
Wed 02:35:00 PM 27.4300 -112.2499 151° Southeast  Level FlightAware Approximate
Wed 02:36:00 PM 27.3193 -112.1798 151° Southeast  Level FlightAware Approximate
Wed 02:37:00 PM 27.2085 -112.1098 151° Southeast  Level FlightAware Approximate
Wed 02:38:00 PM 27.0969 -112.0415 150° Southeast  Level Estimated
Wed 02:39:00 PM 26.9876 -111.9689 149° Southeast  Level FlightAware Approximate
Wed 02:40:00 PM 26.8783 -111.8964 149° Southeast  Level FlightAware Approximate
Wed 02:41:00 PM 26.7665 -111.8288 152° Southeast  Level Estimated
Wed 02:42:00 PM 26.6546 -111.7614 151° Southeast  Level Estimated
Wed 02:43:00 PM 26.5438 -111.6919 151° Southeast  Level FlightAware Approximate
Wed 02:44:00 PM 26.4330 -111.6226 151° Southeast  Level FlightAware Approximate
Wed 02:45:00 PM 26.3210 -111.5557 151° Southeast  Level Estimated
Wed 02:46:00 PM 26.2103 -111.4861 151° Southeast  Level FlightAware Approximate
Wed 02:47:00 PM 26.0997 -111.4166 151° Southeast  Level FlightAware Approximate
Wed 02:48:00 PM 25.9890 -111.3473 151° Southeast  Level FlightAware Approximate
Wed 02:49:00 PM 25.8767 -111.2813 130° Southeast  Level Estimated
Wed 02:50:00 PM 25.8003 -111.1685 127° Southeast  Level FlightAware Approximate
Wed 02:51:00 PM 25.7238 -111.0559 127° Southeast  Level FlightAware Approximate
Wed 02:52:00 PM 25.6473 -110.9434 127° Southeast  Level FlightAware Approximate
Wed 02:53:00 PM 25.5707 -110.8310 127° Southeast  Level FlightAware Approximate
Wed 02:54:00 PM 25.4939 -110.7188 127° Southeast  Level FlightAware Approximate
Wed 02:55:00 PM 25.4171 -110.6068 127° Southeast  Level FlightAware Approximate
Wed 02:56:00 PM 25.2976 -110.5592 130° Southeast  Level Estimated
Wed 02:57:00 PM 25.2413 -110.4333 116° Southeast  Level FlightAware Approximate
Wed 02:58:00 PM 25.1201 -110.3913 130° Southeast  Level Estimated
Wed 02:59:00 PM 24.9989 -110.3494 131° Southeast  Level Estimated
Wed 03:00:00 PM 24.9921 -110.2094 93° East  Level FlightAware Approximate
Wed 03:01:00 PM 24.8687 -110.1762 129° Southeast  Level Estimated
Wed 03:02:00 PM 24.8448 -110.0387 101° East  Level FlightAware Approximate
Wed 03:03:00 PM 24.7196 -110.0149 146° Southeast  Level Estimated
Wed 03:04:00 PM 24.5944 -109.9912 195° South  Level Estimated
Wed 03:05:00 PM 24.4692 -109.9675 180° South  Level Estimated
Wed 03:06:00 PM 24.3440 -109.9439 113° Southeast  Level Estimated
Wed 03:07:00 PM 24.3326 -109.8050 95° East  Level FlightAware Approximate
Wed 03:08:00 PM 24.3211 -109.6662 95° East  Level FlightAware Approximate
Wed 03:09:00 PM 24.1942 -109.6722 219° Southwest  Level Estimated
Wed 03:10:00 PM 24.0722 -109.7111 196° South  Level FlightAware Approximate
Wed 03:11:00 PM 23.9502 -109.7499 196° South  Level FlightAware Approximate
Wed 03:12:00 PM 23.8278 -109.7871 196° South  Level FlightAware Approximate
Wed 03:13:00 PM 23.8586 -109.7425 175° South  Level FlightAware Approximate
Wed 03:14:00 PM 23.7320 -109.7333 180° South  Level FlightAware Approximate
Wed 03:15:00 PM 23.6049 -109.7333 180° South  Level FlightAware Approximate
Wed 03:16:00 PM 23.4782 -109.7262 175° South  Level FlightAware Approximate
Wed 03:17:00 PM 23.3516 -109.7167 180° South  Level FlightAware Approximate
Wed 03:18:00 PM 23.2246 -109.7167 180° South  Level FlightAware Approximate
Wed 03:19:00 PM 23.1518 -109.7210 180° South  Level Estimated
Wed 03:20:00 PM 23.1518 -109.7210 180° South  Level Estimated
Wed 03:21:00 PM 23.1518 -109.7210 180° South  Level Estimated
Wed 03:22:00 PM 23.1518 -109.7210 180° South  Level Estimated
Wed 03:23:00 PM 23.1518 -109.7210 180° South  Level Estimated
Wed 03:24:00 PM 23.1518 -109.7210 180° South  Level Estimated
Wed 03:25:00 PM 23.1518 -109.7210 180° South  Level Estimated
Wed 03:26:00 PM 23.1518 -109.7210 180° South  Level Estimated
Wed 03:27:00 PM 23.1518 -109.7210 180° South  Level Estimated
Wed 03:28:00 PM 23.1518 -109.7210 180° South  Level Estimated
Wed 03:29:00 PM 23.1518 -109.7210 180° South  Level Estimated
Wed 03:30:00 PM 23.1518 -109.7210 180° South  Level Estimated
Wed 03:31:00 PM 23.1518 -109.7210 180° South  Level Estimated
Wed 03:32:00 PM 23.1518 -109.7210 180° South  Level Estimated
Wed 03:33:00 PM 23.1518 -109.7210 180° South  Level Estimated

Login

Don't have an account? Register now (free) for customized features, flight alerts, and more!